sensor_id;sensor_type;location;lat;lon;timestamp;P1;durP1;ratioP1;P2;durP2;ratioP2
1651;SDS011;823;49.028;8.454;2023-02-02T00:02:28;21.42;;;2.83;;
1651;SDS011;823;49.028;8.454;2023-02-02T00:07:28;6.60;;;2.20;;
1651;SDS011;823;49.028;8.454;2023-02-02T00:12:29;9.45;;;2.10;;
1651;SDS011;823;49.028;8.454;2023-02-02T00:17:29;8.40;;;2.13;;
1651;SDS011;823;49.028;8.454;2023-02-02T00:22:29;9.87;;;3.00;;
1651;SDS011;823;49.028;8.454;2023-02-02T00:27:30;14.93;;;2.58;;
1651;SDS011;823;49.028;8.454;2023-02-02T00:32:30;12.98;;;2.75;;
1651;SDS011;823;49.028;8.454;2023-02-02T00:37:30;10.20;;;2.72;;
1651;SDS011;823;49.028;8.454;2023-02-02T00:42:31;11.33;;;2.80;;
1651;SDS011;823;49.028;8.454;2023-02-02T00:47:31;10.65;;;2.50;;
1651;SDS011;823;49.028;8.454;2023-02-02T00:52:31;11.07;;;2.50;;
1651;SDS011;823;49.028;8.454;2023-02-02T00:57:31;9.98;;;2.92;;
1651;SDS011;823;49.028;8.454;2023-02-02T01:02:33;6.93;;;2.90;;
1651;SDS011;823;49.028;8.454;2023-02-02T01:07:34;11.43;;;2.37;;
1651;SDS011;823;49.028;8.454;2023-02-02T01:12:34;7.43;;;2.00;;
1651;SDS011;823;49.028;8.454;2023-02-02T01:17:35;9.00;;;2.50;;
1651;SDS011;823;49.028;8.454;2023-02-02T01:22:35;10.23;;;2.00;;
1651;SDS011;823;49.028;8.454;2023-02-02T01:27:37;7.97;;;2.87;;
1651;SDS011;823;49.028;8.454;2023-02-02T01:32:37;12.83;;;1.90;;
1651;SDS011;823;49.028;8.454;2023-02-02T01:37:38;6.13;;;1.23;;
1651;SDS011;823;49.028;8.454;2023-02-02T01:42:38;11.37;;;2.00;;
1651;SDS011;823;49.028;8.454;2023-02-02T01:47:42;12.50;;;2.40;;
1651;SDS011;823;49.028;8.454;2023-02-02T01:52:48;10.03;;;2.23;;
1651;SDS011;823;49.028;8.454;2023-02-02T01:58:01;4.50;;;1.93;;
1651;SDS011;823;49.028;8.454;2023-02-02T02:03:10;9.73;;;1.70;;
1651;SDS011;823;49.028;8.454;2023-02-02T02:08:17;10.03;;;1.93;;
1651;SDS011;823;49.028;8.454;2023-02-02T02:13:20;13.97;;;2.30;;
1651;SDS011;823;49.028;8.454;2023-02-02T02:18:52;7.17;;;3.37;;
1651;SDS011;823;49.028;8.454;2023-02-02T02:24:07;16.50;;;2.07;;
1651;SDS011;823;49.028;8.454;2023-02-02T02:40:17;15.40;;;3.17;;
1651;SDS011;823;49.028;8.454;2023-02-02T02:45:36;8.70;;;2.60;;
1651;SDS011;823;49.028;8.454;2023-02-02T02:50:38;10.40;;;1.90;;
1651;SDS011;823;49.028;8.454;2023-02-02T02:55:41;8.73;;;2.27;;
1651;SDS011;823;49.028;8.454;2023-02-02T03:00:54;11.00;;;2.60;;
1651;SDS011;823;49.028;8.454;2023-02-02T03:06:03;5.63;;;2.77;;
1651;SDS011;823;49.028;8.454;2023-02-02T03:11:12;12.00;;;2.60;;
1651;SDS011;823;49.028;8.454;2023-02-02T03:16:14;8.57;;;2.90;;
1651;SDS011;823;49.028;8.454;2023-02-02T03:21:16;8.33;;;2.20;;
1651;SDS011;823;49.028;8.454;2023-02-02T03:26:16;22.45;;;3.63;;
1651;SDS011;823;49.028;8.454;2023-02-02T03:31:16;11.60;;;2.53;;
1651;SDS011;823;49.028;8.454;2023-02-02T03:36:17;10.47;;;2.23;;
1651;SDS011;823;49.028;8.454;2023-02-02T03:41:17;18.67;;;2.75;;
1651;SDS011;823;49.028;8.454;2023-02-02T03:46:18;16.03;;;2.80;;
1651;SDS011;823;49.028;8.454;2023-02-02T03:51:18;8.70;;;2.65;;
1651;SDS011;823;49.028;8.454;2023-02-02T03:56:18;8.60;;;2.47;;
1651;SDS011;823;49.028;8.454;2023-02-02T04:01:24;14.63;;;3.67;;
1651;SDS011;823;49.028;8.454;2023-02-02T04:06:26;11.50;;;1.93;;
1651;SDS011;823;49.028;8.454;2023-02-02T04:11:27;9.20;;;2.10;;
1651;SDS011;823;49.028;8.454;2023-02-02T04:16:27;10.40;;;2.50;;
1651;SDS011;823;49.028;8.454;2023-02-02T04:21:29;11.20;;;2.57;;
1651;SDS011;823;49.028;8.454;2023-02-02T04:26:30;7.93;;;2.40;;
1651;SDS011;823;49.028;8.454;2023-02-02T04:31:30;7.78;;;2.55;;
1651;SDS011;823;49.028;8.454;2023-02-02T04:36:31;7.33;;;2.33;;
1651;SDS011;823;49.028;8.454;2023-02-02T04:41:31;8.47;;;2.33;;
1651;SDS011;823;49.028;8.454;2023-02-02T04:46:31;6.43;;;2.20;;
1651;SDS011;823;49.028;8.454;2023-02-02T04:51:32;17.10;;;2.92;;
1651;SDS011;823;49.028;8.454;2023-02-02T04:56:34;9.63;;;2.80;;
1651;SDS011;823;49.028;8.454;2023-02-02T05:01:35;5.80;;;1.63;;
1651;SDS011;823;49.028;8.454;2023-02-02T05:06:35;12.20;;;2.15;;
1651;SDS011;823;49.028;8.454;2023-02-02T05:11:35;9.82;;;1.80;;
1651;SDS011;823;49.028;8.454;2023-02-02T05:16:37;20.57;;;2.63;;
1651;SDS011;823;49.028;8.454;2023-02-02T05:21:38;16.13;;;2.57;;
1651;SDS011;823;49.028;8.454;2023-02-02T05:26:38;12.15;;;2.47;;
1651;SDS011;823;49.028;8.454;2023-02-02T05:31:39;13.20;;;2.53;;
1651;SDS011;823;49.028;8.454;2023-02-02T05:36:39;9.70;;;2.30;;
1651;SDS011;823;49.028;8.454;2023-02-02T05:41:39;11.20;;;2.17;;
1651;SDS011;823;49.028;8.454;2023-02-02T05:46:40;13.47;;;2.50;;
1651;SDS011;823;49.028;8.454;2023-02-02T05:56:46;7.53;;;2.87;;
1651;SDS011;823;49.028;8.454;2023-02-02T06:01:47;9.30;;;2.67;;
1651;SDS011;823;49.028;8.454;2023-02-02T06:06:48;7.87;;;2.47;;
1651;SDS011;823;49.028;8.454;2023-02-02T06:11:48;14.37;;;2.57;;
1651;SDS011;823;49.028;8.454;2023-02-02T06:16:49;11.40;;;2.40;;
1651;SDS011;823;49.028;8.454;2023-02-02T06:21:49;14.03;;;2.40;;
1651;SDS011;823;49.028;8.454;2023-02-02T06:26:49;18.70;;;3.20;;
1651;SDS011;823;49.028;8.454;2023-02-02T06:31:50;8.82;;;2.70;;
1651;SDS011;823;49.028;8.454;2023-02-02T06:36:50;12.18;;;3.05;;
1651;SDS011;823;49.028;8.454;2023-02-02T06:41:50;10.13;;;2.92;;
1651;SDS011;823;49.028;8.454;2023-02-02T06:46:51;8.00;;;2.30;;
1651;SDS011;823;49.028;8.454;2023-02-02T06:51:51;4.90;;;2.13;;
1651;SDS011;823;49.028;8.454;2023-02-02T06:56:51;9.48;;;2.88;;
1651;SDS011;823;49.028;8.454;2023-02-02T07:01:52;6.30;;;2.70;;
1651;SDS011;823;49.028;8.454;2023-02-02T07:06:52;7.93;;;2.95;;
1651;SDS011;823;49.028;8.454;2023-02-02T07:11:52;10.63;;;3.00;;
1651;SDS011;823;49.028;8.454;2023-02-02T07:16:52;8.75;;;3.10;;
1651;SDS011;823;49.028;8.454;2023-02-02T07:21:53;10.68;;;3.45;;
1651;SDS011;823;49.028;8.454;2023-02-02T07:26:54;18.03;;;3.97;;
1651;SDS011;823;49.028;8.454;2023-02-02T07:31:54;12.13;;;3.20;;
1651;SDS011;823;49.028;8.454;2023-02-02T07:36:54;8.50;;;3.30;;
1651;SDS011;823;49.028;8.454;2023-02-02T07:41:54;8.85;;;3.55;;
1651;SDS011;823;49.028;8.454;2023-02-02T07:46:55;12.73;;;3.10;;
1651;SDS011;823;49.028;8.454;2023-02-02T07:51:56;11.00;;;2.93;;
1651;SDS011;823;49.028;8.454;2023-02-02T07:56:57;7.70;;;2.73;;
1651;SDS011;823;49.028;8.454;2023-02-02T08:01:57;9.95;;;3.92;;
1651;SDS011;823;49.028;8.454;2023-02-02T08:06:57;13.48;;;3.13;;
1651;SDS011;823;49.028;8.454;2023-02-02T08:11:58;5.82;;;2.40;;
1651;SDS011;823;49.028;8.454;2023-02-02T08:17:00;13.47;;;2.97;;
1651;SDS011;823;49.028;8.454;2023-02-02T08:22:02;13.63;;;3.50;;
1651;SDS011;823;49.028;8.454;2023-02-02T08:27:02;13.88;;;3.63;;
1651;SDS011;823;49.028;8.454;2023-02-02T08:32:03;19.05;;;3.35;;
1651;SDS011;823;49.028;8.454;2023-02-02T08:37:03;15.20;;;3.20;;
1651;SDS011;823;49.028;8.454;2023-02-02T08:42:04;12.13;;;3.40;;
1651;SDS011;823;49.028;8.454;2023-02-02T08:47:04;10.23;;;4.10;;
1651;SDS011;823;49.028;8.454;2023-02-02T08:52:04;17.50;;;3.40;;
1651;SDS011;823;49.028;8.454;2023-02-02T08:57:05;25.23;;;4.07;;
1651;SDS011;823;49.028;8.454;2023-02-02T09:02:05;12.55;;;4.07;;
1651;SDS011;823;49.028;8.454;2023-02-02T09:07:05;10.90;;;4.37;;
1651;SDS011;823;49.028;8.454;2023-02-02T09:12:05;27.40;;;3.63;;
1651;SDS011;823;49.028;8.454;2023-02-02T09:17:06;12.13;;;4.10;;
1651;SDS011;823;49.028;8.454;2023-02-02T09:22:06;10.87;;;3.60;;
1651;SDS011;823;49.028;8.454;2023-02-02T09:27:06;10.95;;;4.10;;
1651;SDS011;823;49.028;8.454;2023-02-02T09:32:07;10.80;;;3.65;;
1651;SDS011;823;49.028;8.454;2023-02-02T09:37:08;13.07;;;4.10;;
1651;SDS011;823;49.028;8.454;2023-02-02T09:42:18;14.27;;;4.20;;
1651;SDS011;823;49.028;8.454;2023-02-02T09:53:04;18.57;;;3.37;;
1651;SDS011;823;49.028;8.454;2023-02-02T10:03:29;18.90;;;4.13;;
1651;SDS011;823;49.028;8.454;2023-02-02T10:08:37;25.33;;;3.80;;
1651;SDS011;823;49.028;8.454;2023-02-02T10:13:44;17.93;;;3.50;;
1651;SDS011;823;49.028;8.454;2023-02-02T10:18:53;5.50;;;2.60;;
1651;SDS011;823;49.028;8.454;2023-02-02T10:23:59;11.67;;;2.60;;
1651;SDS011;823;49.028;8.454;2023-02-02T10:29:14;15.17;;;3.40;;
1651;SDS011;823;49.028;8.454;2023-02-02T10:45:00;11.37;;;3.67;;
1651;SDS011;823;49.028;8.454;2023-02-02T11:00:15;23.15;;;4.43;;
1651;SDS011;823;49.028;8.454;2023-02-02T11:05:22;8.20;;;2.87;;
1651;SDS011;823;49.028;8.454;2023-02-02T11:10:43;13.00;;;3.00;;
1651;SDS011;823;49.028;8.454;2023-02-02T11:15:44;10.43;;;2.50;;
1651;SDS011;823;49.028;8.454;2023-02-02T11:20:45;8.17;;;2.20;;
1651;SDS011;823;49.028;8.454;2023-02-02T11:25:45;7.53;;;2.60;;
1651;SDS011;823;49.028;8.454;2023-02-02T11:30:56;4.67;;;2.10;;
1651;SDS011;823;49.028;8.454;2023-02-02T11:36:01;6.83;;;2.30;;
1651;SDS011;823;49.028;8.454;2023-02-02T11:41:03;9.90;;;2.50;;
1651;SDS011;823;49.028;8.454;2023-02-02T11:51:37;6.67;;;2.50;;
1651;SDS011;823;49.028;8.454;2023-02-02T11:56:37;9.97;;;2.40;;
1651;SDS011;823;49.028;8.454;2023-02-02T12:01:38;12.27;;;2.30;;
1651;SDS011;823;49.028;8.454;2023-02-02T12:06:39;13.53;;;3.10;;
1651;SDS011;823;49.028;8.454;2023-02-02T12:11:52;5.70;;;2.43;;
1651;SDS011;823;49.028;8.454;2023-02-02T12:17:03;14.80;;;2.70;;
1651;SDS011;823;49.028;8.454;2023-02-02T12:33:04;11.10;;;2.97;;
1651;SDS011;823;49.028;8.454;2023-02-02T12:43:41;16.80;;;2.83;;
1651;SDS011;823;49.028;8.454;2023-02-02T12:48:48;7.73;;;2.80;;
1651;SDS011;823;49.028;8.454;2023-02-02T13:10:05;11.60;;;2.60;;
1651;SDS011;823;49.028;8.454;2023-02-02T13:15:13;7.80;;;2.50;;
1651;SDS011;823;49.028;8.454;2023-02-02T13:25:41;10.50;;;3.23;;
1651;SDS011;823;49.028;8.454;2023-02-02T13:30:46;10.97;;;2.50;;
1651;SDS011;823;49.028;8.454;2023-02-02T13:36:07;18.03;;;2.20;;
1651;SDS011;823;49.028;8.454;2023-02-02T13:41:14;10.40;;;2.53;;
1651;SDS011;823;49.028;8.454;2023-02-02T13:46:23;13.37;;;2.33;;
1651;SDS011;823;49.028;8.454;2023-02-02T14:02:40;6.03;;;2.20;;
1651;SDS011;823;49.028;8.454;2023-02-02T14:07:44;8.30;;;2.20;;
1651;SDS011;823;49.028;8.454;2023-02-02T14:12:46;6.30;;;2.40;;
1651;SDS011;823;49.028;8.454;2023-02-02T14:17:48;20.67;;;2.70;;
1651;SDS011;823;49.028;8.454;2023-02-02T14:22:51;9.83;;;1.63;;
1651;SDS011;823;49.028;8.454;2023-02-02T14:27:54;6.00;;;1.63;;
1651;SDS011;823;49.028;8.454;2023-02-02T14:38:50;6.20;;;1.63;;
1651;SDS011;823;49.028;8.454;2023-02-02T14:44:09;8.50;;;1.70;;
1651;SDS011;823;49.028;8.454;2023-02-02T14:49:10;10.93;;;2.30;;
1651;SDS011;823;49.028;8.454;2023-02-02T14:54:18;6.40;;;1.50;;
1651;SDS011;823;49.028;8.454;2023-02-02T14:59:31;9.20;;;2.13;;
1651;SDS011;823;49.028;8.454;2023-02-02T15:04:35;5.43;;;2.27;;
1651;SDS011;823;49.028;8.454;2023-02-02T15:09:36;8.23;;;1.77;;
1651;SDS011;823;49.028;8.454;2023-02-02T15:14:37;9.43;;;2.83;;
1651;SDS011;823;49.028;8.454;2023-02-02T15:19:44;4.70;;;1.90;;
1651;SDS011;823;49.028;8.454;2023-02-02T15:24:51;9.57;;;2.17;;
1651;SDS011;823;49.028;8.454;2023-02-02T15:29:53;7.93;;;1.70;;
1651;SDS011;823;49.028;8.454;2023-02-02T15:35:00;6.00;;;1.93;;
1651;SDS011;823;49.028;8.454;2023-02-02T15:40:03;7.73;;;1.77;;
1651;SDS011;823;49.028;8.454;2023-02-02T15:50:27;4.93;;;1.83;;
1651;SDS011;823;49.028;8.454;2023-02-02T15:55:32;5.57;;;1.70;;
1651;SDS011;823;49.028;8.454;2023-02-02T16:00:34;9.67;;;1.80;;
1651;SDS011;823;49.028;8.454;2023-02-02T16:10:37;7.97;;;1.45;;
1651;SDS011;823;49.028;8.454;2023-02-02T16:15:37;4.50;;;1.60;;
1651;SDS011;823;49.028;8.454;2023-02-02T16:20:38;2.78;;;1.20;;
1651;SDS011;823;49.028;8.454;2023-02-02T16:25:45;7.70;;;1.73;;
1651;SDS011;823;49.028;8.454;2023-02-02T16:30:48;6.93;;;1.10;;
1651;SDS011;823;49.028;8.454;2023-02-02T16:35:53;3.80;;;1.50;;
1651;SDS011;823;49.028;8.454;2023-02-02T16:41:07;5.57;;;1.60;;
1651;SDS011;823;49.028;8.454;2023-02-02T16:46:08;2.87;;;1.27;;
1651;SDS011;823;49.028;8.454;2023-02-02T17:01:45;7.60;;;1.67;;
1651;SDS011;823;49.028;8.454;2023-02-02T17:06:51;5.57;;;1.33;;
1651;SDS011;823;49.028;8.454;2023-02-02T17:12:39;7.60;;;2.10;;
1651;SDS011;823;49.028;8.454;2023-02-02T17:17:14;10.43;;;1.70;;
1651;SDS011;823;49.028;8.454;2023-02-02T17:22:15;11.40;;;1.57;;
1651;SDS011;823;49.028;8.454;2023-02-02T17:27:24;5.47;;;1.97;;
1651;SDS011;823;49.028;8.454;2023-02-02T17:32:26;8.40;;;1.33;;
1651;SDS011;823;49.028;8.454;2023-02-02T17:37:26;12.20;;;1.50;;
1651;SDS011;823;49.028;8.454;2023-02-02T17:42:27;6.50;;;1.80;;
1651;SDS011;823;49.028;8.454;2023-02-02T17:47:27;11.83;;;1.53;;
1651;SDS011;823;49.028;8.454;2023-02-02T17:52:27;12.03;;;2.57;;
1651;SDS011;823;49.028;8.454;2023-02-02T17:57:28;4.22;;;3.17;;
1651;SDS011;823;49.028;8.454;2023-02-02T18:02:28;5.50;;;2.23;;
1651;SDS011;823;49.028;8.454;2023-02-02T18:07:29;10.97;;;1.50;;
1651;SDS011;823;49.028;8.454;2023-02-02T18:12:29;12.97;;;3.43;;
1651;SDS011;823;49.028;8.454;2023-02-02T18:17:30;3.87;;;2.27;;
1651;SDS011;823;49.028;8.454;2023-02-02T18:22:31;3.50;;;1.40;;
1651;SDS011;823;49.028;8.454;2023-02-02T18:27:31;9.33;;;2.77;;
1651;SDS011;823;49.028;8.454;2023-02-02T18:32:38;11.50;;;1.77;;
1651;SDS011;823;49.028;8.454;2023-02-02T18:37:40;4.40;;;1.37;;
1651;SDS011;823;49.028;8.454;2023-02-02T18:42:40;3.50;;;1.90;;
1651;SDS011;823;49.028;8.454;2023-02-02T18:47:40;2.17;;;1.27;;
1651;SDS011;823;49.028;8.454;2023-02-02T18:52:41;5.37;;;1.83;;
1651;SDS011;823;49.028;8.454;2023-02-02T18:57:41;6.18;;;1.60;;
1651;SDS011;823;49.028;8.454;2023-02-02T19:02:41;14.03;;;1.60;;
1651;SDS011;823;49.028;8.454;2023-02-02T19:07:41;7.03;;;2.03;;
1651;SDS011;823;49.028;8.454;2023-02-02T19:12:57;3.10;;;1.40;;
1651;SDS011;823;49.028;8.454;2023-02-02T19:18:13;4.53;;;1.47;;
1651;SDS011;823;49.028;8.454;2023-02-02T19:23:18;7.13;;;1.60;;
1651;SDS011;823;49.028;8.454;2023-02-02T19:28:23;1.97;;;1.13;;
1651;SDS011;823;49.028;8.454;2023-02-02T19:33:38;5.00;;;1.97;;
1651;SDS011;823;49.028;8.454;2023-02-02T19:38:41;10.20;;;2.33;;
1651;SDS011;823;49.028;8.454;2023-02-02T19:43:42;11.20;;;4.13;;
1651;SDS011;823;49.028;8.454;2023-02-02T19:48:46;15.87;;;5.10;;
1651;SDS011;823;49.028;8.454;2023-02-02T19:53:48;3.77;;;2.03;;
1651;SDS011;823;49.028;8.454;2023-02-02T19:58:48;4.87;;;1.60;;
1651;SDS011;823;49.028;8.454;2023-02-02T20:03:48;4.32;;;2.10;;
1651;SDS011;823;49.028;8.454;2023-02-02T20:08:49;9.83;;;2.20;;
1651;SDS011;823;49.028;8.454;2023-02-02T20:13:50;2.90;;;1.77;;
1651;SDS011;823;49.028;8.454;2023-02-02T20:18:54;6.30;;;1.70;;
1651;SDS011;823;49.028;8.454;2023-02-02T20:23:56;7.40;;;1.97;;
1651;SDS011;823;49.028;8.454;2023-02-02T20:28:58;6.50;;;2.00;;
1651;SDS011;823;49.028;8.454;2023-02-02T20:34:00;5.53;;;1.33;;
1651;SDS011;823;49.028;8.454;2023-02-02T20:44:27;4.40;;;1.30;;
1651;SDS011;823;49.028;8.454;2023-02-02T20:49:28;3.60;;;1.87;;
1651;SDS011;823;49.028;8.454;2023-02-02T20:54:30;5.37;;;1.20;;
1651;SDS011;823;49.028;8.454;2023-02-02T20:59:31;6.93;;;1.30;;
1651;SDS011;823;49.028;8.454;2023-02-02T21:04:32;8.07;;;1.65;;
1651;SDS011;823;49.028;8.454;2023-02-02T21:09:32;6.60;;;2.03;;
1651;SDS011;823;49.028;8.454;2023-02-02T21:14:33;5.10;;;1.38;;
1651;SDS011;823;49.028;8.454;2023-02-02T21:19:33;3.17;;;1.13;;
1651;SDS011;823;49.028;8.454;2023-02-02T21:24:33;3.05;;;1.05;;
1651;SDS011;823;49.028;8.454;2023-02-02T21:29:34;2.40;;;1.40;;
1651;SDS011;823;49.028;8.454;2023-02-02T21:34:34;7.53;;;3.30;;
1651;SDS011;823;49.028;8.454;2023-02-02T21:39:36;3.20;;;1.80;;
1651;SDS011;823;49.028;8.454;2023-02-02T21:44:38;7.75;;;1.88;;
1651;SDS011;823;49.028;8.454;2023-02-02T21:49:40;11.20;;;1.93;;
1651;SDS011;823;49.028;8.454;2023-02-02T21:54:40;9.67;;;2.80;;
1651;SDS011;823;49.028;8.454;2023-02-02T21:59:41;4.57;;;1.57;;
1651;SDS011;823;49.028;8.454;2023-02-02T22:04:41;6.03;;;1.67;;
1651;SDS011;823;49.028;8.454;2023-02-02T22:09:42;2.80;;;1.50;;
1651;SDS011;823;49.028;8.454;2023-02-02T22:14:45;3.57;;;1.70;;
1651;SDS011;823;49.028;8.454;2023-02-02T22:19:46;4.80;;;1.73;;
1651;SDS011;823;49.028;8.454;2023-02-02T22:24:51;4.17;;;1.50;;
1651;SDS011;823;49.028;8.454;2023-02-02T22:29:59;2.73;;;1.60;;
1651;SDS011;823;49.028;8.454;2023-02-02T22:35:09;10.60;;;2.00;;
1651;SDS011;823;49.028;8.454;2023-02-02T22:40:10;4.85;;;2.53;;
1651;SDS011;823;49.028;8.454;2023-02-02T22:45:11;4.30;;;1.57;;
1651;SDS011;823;49.028;8.454;2023-02-02T22:50:11;5.00;;;1.70;;
1651;SDS011;823;49.028;8.454;2023-02-02T22:55:15;4.70;;;1.90;;
1651;SDS011;823;49.028;8.454;2023-02-02T23:00:17;8.63;;;1.63;;
1651;SDS011;823;49.028;8.454;2023-02-02T23:05:24;9.57;;;1.87;;
1651;SDS011;823;49.028;8.454;2023-02-02T23:10:25;4.77;;;1.47;;
1651;SDS011;823;49.028;8.454;2023-02-02T23:15:28;2.47;;;1.37;;
1651;SDS011;823;49.028;8.454;2023-02-02T23:20:29;4.00;;;1.40;;
1651;SDS011;823;49.028;8.454;2023-02-02T23:25:30;5.77;;;1.30;;
1651;SDS011;823;49.028;8.454;2023-02-02T23:30:30;6.45;;;1.77;;
1651;SDS011;823;49.028;8.454;2023-02-02T23:35:30;2.97;;;1.40;;
1651;SDS011;823;49.028;8.454;2023-02-02T23:40:31;3.92;;;1.65;;
1651;SDS011;823;49.028;8.454;2023-02-02T23:45:31;5.57;;;1.75;;
1651;SDS011;823;49.028;8.454;2023-02-02T23:50:32;2.97;;;1.23;;
1651;SDS011;823;49.028;8.454;2023-02-02T23:55:33;8.90;;;1.90;;
